Time;durP1;ratioP1;P1;durP2;ratioP2;P2;SDS_P1;SDS_P2;PMS_P1;PMS_P2;Temp;Humidity;BMP_temperature;BMP_pressure;BME280_temperature;BME280_humidity;BME280_pressure;Samples;Min_cycle;Max_cycle;Signal;HPM_P1;HPM_P2
2023/12/10 00:00:14;;;;;;;1.58;1.13;;;18.00;46.60;;;;;;5014260;28;20201;-79
2023/12/10 00:02:41;;;;;;;2.35;1.17;;;18.00;46.70;;;;;;5014737;28;20224;-79
2023/12/10 00:05:09;;;;;;;2.25;1.20;;;17.90;46.70;;;;;;5015106;28;20201;-79
2023/12/10 00:07:35;;;;;;;1.85;1.30;;;17.90;46.70;;;;;;5014760;28;20747;-79
2023/12/10 00:10:03;;;;;;;2.42;1.30;;;17.90;46.80;;;;;;5015088;28;20541;-79
2023/12/10 00:12:33;;;;;;;1.25;1.00;;;17.90;46.90;;;;;;5015022;28;20209;-79
2023/12/10 00:15:00;;;;;;;2.10;1.30;;;17.90;46.80;;;;;;5014452;28;20207;-79
2023/12/10 00:17:27;;;;;;;2.78;1.23;;;17.90;47.50;;;;;;5014673;28;20268;-79
2023/12/10 00:19:54;;;;;;;2.55;1.10;;;17.90;46.90;;;;;;5014685;28;20570;-79
2023/12/10 00:22:23;;;;;;;2.15;1.10;;;17.80;46.80;;;;;;5014633;28;20207;-79
2023/12/10 00:24:50;;;;;;;1.80;1.30;;;17.90;46.90;;;;;;5015127;28;20574;-79
2023/12/10 00:27:17;;;;;;;2.63;1.10;;;17.80;46.90;;;;;;5014444;28;20252;-79
2023/12/10 00:29:45;;;;;;;1.80;1.20;;;17.80;47.50;;;;;;5014667;28;20220;-79
2023/12/10 00:32:13;;;;;;;2.38;1.20;;;17.80;46.80;;;;;;5014395;28;20232;-79
2023/12/10 00:34:39;;;;;;;3.33;1.45;;;17.80;46.90;;;;;;5015567;28;20234;-80
2023/12/10 00:37:07;;;;;;;1.75;1.27;;;17.80;46.90;;;;;;5014652;28;20627;-79
2023/12/10 00:39:34;;;;;;;2.65;1.42;;;17.80;46.90;;;;;;5015131;28;20232;-79
2023/12/10 00:42:01;;;;;;;3.20;1.20;;;17.80;46.80;;;;;;5014592;28;20207;-79
2023/12/10 00:44:28;;;;;;;1.63;0.90;;;17.70;46.70;;;;;;5014828;28;20197;-79
2023/12/10 00:46:57;;;;;;;1.55;1.08;;;17.80;46.80;;;;;;5015101;28;20275;-79
2023/12/10 00:49:25;;;;;;;2.50;1.48;;;17.80;46.80;;;;;;5015156;28;20224;-79
2023/12/10 00:51:52;;;;;;;2.65;1.50;;;17.80;46.90;;;;;;5014440;28;20196;-79
2023/12/10 00:54:19;;;;;;;2.13;1.40;;;17.70;46.80;;;;;;5014368;28;20258;-79
2023/12/10 00:56:47;;;;;;;2.17;1.30;;;17.70;46.90;;;;;;5015022;28;20221;-78
2023/12/10 00:59:14;;;;;;;1.50;1.23;;;17.70;46.80;;;;;;5015048;28;20240;-78
2023/12/10 01:01:41;;;;;;;2.00;1.30;;;17.70;46.90;;;;;;5017066;28;20247;-78
2023/12/10 01:04:10;;;;;;;3.88;1.50;;;17.70;46.80;;;;;;5000556;28;20200;-78
2023/12/10 01:06:37;;;;;;;2.33;1.40;;;17.70;46.80;;;;;;5016709;28;20243;-78
2023/12/10 01:09:04;;;;;;;2.25;1.40;;;17.70;46.90;;;;;;5017251;28;20193;-79
2023/12/10 01:11:32;;;;;;;3.00;1.38;;;17.70;46.90;;;;;;5000910;28;20263;-79
2023/12/10 01:14:02;;;;;;;3.28;1.50;;;17.70;46.90;;;;;;5016960;28;20201;-79
2023/12/10 01:16:29;;;;;;;2.03;1.08;;;17.60;46.80;;;;;;5140806;23;20236;-82
2023/12/10 01:18:57;;;;;;;1.23;1.10;;;17.70;47.50;;;;;;5012627;28;20308;-82
2023/12/10 01:21:25;;;;;;;2.95;1.63;;;17.60;47.50;;;;;;4996294;28;20205;-82
2023/12/10 01:23:54;;;;;;;2.58;1.27;;;17.60;46.90;;;;;;5013370;28;20652;-82
2023/12/10 01:26:22;;;;;;;3.63;1.50;;;17.60;46.90;;;;;;5012656;28;20758;-82
2023/12/10 01:28:50;;;;;;;3.53;1.55;;;17.60;46.90;;;;;;5012400;28;20193;-82
2023/12/10 01:31:17;;;;;;;1.98;1.50;;;17.60;46.80;;;;;;5013841;28;20185;-82
2023/12/10 01:33:44;;;;;;;3.17;1.58;;;17.60;46.80;;;;;;5013217;28;20192;-82
2023/12/10 01:36:21;;;;;;;2.47;1.25;;;17.60;46.90;;;;;;5017353;28;20204;-82
2023/12/10 01:38:50;;;;;;;3.47;1.52;;;17.60;46.90;;;;;;5015867;28;20212;-82
2023/12/10 01:41:18;;;;;;;4.30;1.77;;;17.60;46.90;;;;;;5017355;28;20211;-82
2023/12/10 01:43:45;;;;;;;2.90;1.48;;;17.60;46.90;;;;;;5016519;28;20296;-82
2023/12/10 01:46:12;;;;;;;3.35;1.60;;;17.60;46.80;;;;;;5016294;28;20209;-82
2023/12/10 01:48:40;;;;;;;3.00;1.60;;;17.60;47.50;;;;;;5016989;28;20201;-82
2023/12/10 01:51:08;;;;;;;3.60;2.00;;;17.60;46.90;;;;;;5016590;28;20207;-82
2023/12/10 01:53:35;;;;;;;4.43;1.60;;;17.60;46.90;;;;;;5016410;28;20577;-82
2023/12/10 01:56:04;;;;;;;3.95;1.67;;;17.60;46.80;;;;;;5015906;28;20612;-82
2023/12/10 01:58:32;;;;;;;2.63;1.50;;;17.50;46.80;;;;;;4999470;28;20221;-82
2023/12/10 02:01:00;;;;;;;4.15;1.80;;;17.50;46.80;;;;;;4999532;28;20207;-82
2023/12/10 02:03:27;;;;;;;2.97;1.50;;;17.50;46.80;;;;;;4999500;28;20660;-82
2023/12/10 02:05:54;;;;;;;3.70;1.60;;;17.50;46.90;;;;;;5016445;28;20241;-82
2023/12/10 02:08:22;;;;;;;4.47;1.80;;;17.50;46.80;;;;;;5015724;28;20193;-82
2023/12/10 02:10:49;;;;;;;3.70;1.90;;;17.50;46.90;;;;;;5015441;28;20192;-82
2023/12/10 02:13:18;;;;;;;2.17;1.58;;;17.50;46.90;;;;;;5015652;28;20192;-82
2023/12/10 02:15:46;;;;;;;4.32;1.88;;;17.50;47.50;;;;;;5015666;28;20573;-82
2023/12/10 02:18:13;;;;;;;3.80;1.50;;;17.50;46.90;;;;;;5016162;28;20667;-82
2023/12/10 02:20:40;;;;;;;4.70;2.05;;;17.50;46.90;;;;;;5015839;28;20540;-82
2023/12/10 02:23:10;;;;;;;3.53;1.70;;;17.50;46.90;;;;;;5015627;28;20617;-82
2023/12/10 02:25:40;;;;;;;2.72;1.80;;;17.50;47.00;;;;;;5015599;28;20209;-82
2023/12/10 02:28:08;;;;;;;4.13;1.90;;;17.50;47.00;;;;;;5027581;28;20173;-82
2023/12/10 02:30:35;;;;;;;4.57;1.67;;;17.40;47.00;;;;;;5040613;28;20173;-82
2023/12/10 02:33:02;;;;;;;3.55;1.70;;;17.40;47.00;;;;;;5040405;28;20248;-82
2023/12/10 02:35:30;;;;;;;2.88;1.60;;;17.40;47.00;;;;;;5024284;28;20182;-82
2023/12/10 02:37:57;;;;;;;5.72;2.00;;;17.40;47.60;;;;;;5040375;28;20200;-82
2023/12/10 02:40:24;;;;;;;3.10;1.88;;;17.40;47.10;;;;;;5039166;28;20223;-82
2023/12/10 02:42:52;;;;;;;3.03;1.52;;;17.40;47.10;;;;;;5026480;28;20209;-82
2023/12/10 02:45:19;;;;;;;3.70;1.80;;;17.40;47.10;;;;;;5015024;28;20540;-82
2023/12/10 02:47:46;;;;;;;4.43;1.70;;;17.40;47.20;;;;;;5015771;28;20204;-82
2023/12/10 02:50:14;;;;;;;3.65;1.70;;;17.40;47.90;;;;;;5015523;28;20193;-82
2023/12/10 02:52:41;;;;;;;3.20;1.50;;;17.30;47.20;;;;;;5000733;28;20251;-82
2023/12/10 02:55:09;;;;;;;2.83;1.55;;;17.30;47.20;;;;;;5017529;28;20209;-82
2023/12/10 02:57:36;;;;;;;4.07;1.67;;;17.40;47.30;;;;;;5016627;28;20225;-82
2023/12/10 03:00:07;;;;;;;5.82;1.83;;;17.30;47.30;;;;;;5014497;28;20244;-82
2023/12/10 03:02:35;;;;;;;3.88;1.55;;;17.30;47.30;;;;;;5014977;28;20655;-82
2023/12/10 03:05:02;;;;;;;3.58;1.50;;;17.30;47.30;;;;;;5014785;28;20255;-83
2023/12/10 03:07:29;;;;;;;3.38;1.40;;;17.30;47.90;;;;;;5014622;28;20243;-83
2023/12/10 03:09:56;;;;;;;3.38;1.67;;;17.30;47.40;;;;;;5014427;28;20663;-82
2023/12/10 03:12:23;;;;;;;2.53;1.35;;;17.30;47.30;;;;;;5014856;28;20296;-82
2023/12/10 03:14:50;;;;;;;3.22;1.63;;;17.30;47.30;;;;;;5014657;28;20201;-82
2023/12/10 03:17:19;;;;;;;3.58;1.52;;;17.30;47.30;;;;;;5014970;28;20639;-82
2023/12/10 03:19:46;;;;;;;3.50;1.45;;;17.30;47.30;;;;;;5014773;28;20221;-82
2023/12/10 03:22:13;;;;;;;4.45;1.73;;;17.30;47.30;;;;;;5014767;28;20197;-82
2023/12/10 03:24:40;;;;;;;2.75;1.50;;;17.30;47.30;;;;;;5015296;28;20201;-82
2023/12/10 03:27:07;;;;;;;3.53;1.70;;;17.30;47.90;;;;;;5016074;28;20295;-82
2023/12/10 03:29:34;;;;;;;3.33;1.42;;;17.30;47.30;;;;;;5014952;28;20343;-82
2023/12/10 03:32:02;;;;;;;3.28;1.70;;;17.20;47.20;;;;;;5015588;28;20204;-82
2023/12/10 03:34:30;;;;;;;2.80;1.40;;;17.30;47.30;;;;;;5015435;28;20268;-82
2023/12/10 03:36:57;;;;;;;2.88;1.42;;;17.20;47.40;;;;;;5015440;28;20209;-82
2023/12/10 03:39:24;;;;;;;3.88;1.50;;;17.20;47.20;;;;;;5015122;28;20288;-82
2023/12/10 03:41:51;;;;;;;3.13;1.60;;;17.20;47.30;;;;;;5016038;28;20207;-82
2023/12/10 03:44:18;;;;;;;3.47;1.50;;;17.20;47.30;;;;;;5014079;28;20287;-82
2023/12/10 03:46:46;;;;;;;3.70;1.50;;;17.20;47.30;;;;;;5013645;28;20220;-82
2023/12/10 03:49:13;;;;;;;3.15;1.52;;;17.20;47.30;;;;;;5014385;28;20199;-82
2023/12/10 03:51:42;;;;;;;4.95;2.00;;;17.10;47.30;;;;;;5015936;28;20224;-82
2023/12/10 03:54:08;;;;;;;2.83;1.40;;;17.10;47.30;;;;;;4983520;28;20189;-82
2023/12/10 03:56:36;;;;;;;2.17;1.60;;;17.10;47.30;;;;;;5015399;28;20216;-82
2023/12/10 03:59:03;;;;;;;3.17;1.40;;;17.10;47.30;;;;;;5014986;28;20303;-82
2023/12/10 04:01:30;;;;;;;3.22;1.60;;;17.10;47.30;;;;;;4999437;28;20213;-82
2023/12/10 04:03:57;;;;;;;2.95;1.40;;;17.10;47.40;;;;;;5015760;28;20201;-82
2023/12/10 04:06:24;;;;;;;3.25;1.35;;;17.10;47.50;;;;;;5016176;28;20209;-82
2023/12/10 04:08:53;;;;;;;4.10;1.83;;;17.10;47.40;;;;;;5015578;28;20248;-82
2023/12/10 04:11:24;;;;;;;3.25;1.50;;;17.10;47.40;;;;;;5016941;28;20251;-82
2023/12/10 04:13:51;;;;;;;3.78;1.63;;;17.10;47.40;;;;;;5018518;28;20224;-82
2023/12/10 04:16:25;;;;;;;2.80;1.45;;;17.00;47.30;;;;;;5013605;28;20246;-82
2023/12/10 04:18:53;;;;;;;3.70;1.45;;;17.00;47.40;;;;;;5013434;28;20223;-82
2023/12/10 04:21:21;;;;;;;3.10;1.70;;;16.90;47.60;;;;;;4997270;28;20291;-82
2023/12/10 04:23:48;;;;;;;4.13;1.65;;;16.90;47.70;;;;;;5014061;28;20203;-82
2023/12/10 04:26:17;;;;;;;2.35;1.42;;;16.90;47.70;;;;;;5013359;28;20594;-82
2023/12/10 04:28:44;;;;;;;3.15;1.55;;;16.90;47.90;;;;;;5013210;28;20292;-82
2023/12/10 04:31:11;;;;;;;4.38;1.70;;;16.90;47.80;;;;;;5013073;28;20666;-82
2023/12/10 04:33:38;;;;;;;4.25;1.55;;;16.90;47.80;;;;;;5013165;28;20200;-82
2023/12/10 04:36:06;;;;;;;3.28;1.50;;;16.90;47.70;;;;;;5013338;28;20223;-82
2023/12/10 04:38:33;;;;;;;3.45;1.40;;;16.90;47.60;;;;;;5012993;28;20292;-82
2023/12/10 04:41:00;;;;;;;3.85;1.67;;;17.00;47.70;;;;;;5013187;28;20209;-82
2023/12/10 04:43:29;;;;;;;3.22;1.92;;;17.00;47.60;;;;;;5015202;28;20212;-82
2023/12/10 04:45:55;;;;;;;2.92;1.45;;;17.00;47.50;;;;;;5013719;28;20296;-82
2023/12/10 04:48:23;;;;;;;3.05;1.38;;;17.00;47.40;;;;;;5025904;28;20188;-82
2023/12/10 04:50:50;;;;;;;1.80;1.33;;;17.00;47.30;;;;;;5038340;28;20177;-82
2023/12/10 04:53:17;;;;;;;3.88;1.73;;;17.10;47.50;;;;;;5016842;28;20193;-82
2023/12/10 04:55:44;;;;;;;2.83;1.60;;;17.10;47.30;;;;;;5013153;28;20213;-82
2023/12/10 04:58:11;;;;;;;2.35;1.30;;;17.10;47.10;;;;;;5013159;28;20209;-82
2023/12/10 05:00:39;;;;;;;4.05;1.60;;;17.10;47.10;;;;;;5013322;28;20266;-82
2023/12/10 05:03:07;;;;;;;3.30;1.58;;;17.20;47.10;;;;;;5015927;28;20200;-82
2023/12/10 05:05:34;;;;;;;2.83;1.63;;;17.20;47.00;;;;;;5016126;28;20267;-82
2023/12/10 05:08:01;;;;;;;2.00;1.20;;;17.20;46.80;;;;;;5013263;28;20292;-82
2023/12/10 05:10:28;;;;;;;3.55;1.60;;;17.20;46.80;;;;;;5016748;28;20189;-82
2023/12/10 05:12:55;;;;;;;2.40;1.30;;;17.20;46.80;;;;;;5017085;28;20563;-82
2023/12/10 05:15:22;;;;;;;3.65;1.60;;;17.20;46.90;;;;;;5016623;28;20192;-82
2023/12/10 05:17:51;;;;;;;2.83;1.60;;;17.20;46.90;;;;;;5016581;28;20203;-82
2023/12/10 05:20:18;;;;;;;3.83;1.70;;;17.20;46.90;;;;;;5016638;28;20216;-82
2023/12/10 05:22:45;;;;;;;6.50;2.03;;;17.20;46.90;;;;;;5016675;28;20573;-82
2023/12/10 05:25:13;;;;;;;3.75;1.50;;;17.10;47.50;;;;;;5016811;28;20203;-82
2023/12/10 05:27:40;;;;;;;3.38;1.50;;;17.20;47.20;;;;;;5016825;28;20225;-82
2023/12/10 05:30:08;;;;;;;3.30;1.60;;;17.10;47.00;;;;;;5017786;28;20582;-82
2023/12/10 05:32:34;;;;;;;2.80;1.40;;;17.10;47.00;;;;;;5016779;28;20676;-82
2023/12/10 05:35:04;;;;;;;5.03;1.75;;;17.10;47.00;;;;;;5016646;28;20682;-82
2023/12/10 05:37:31;;;;;;;5.60;1.70;;;17.20;46.80;;;;;;5016281;28;20227;-82
2023/12/10 05:39:58;;;;;;;2.92;1.50;;;17.20;46.40;;;;;;5017174;28;20225;-82
2023/12/10 05:42:26;;;;;;;3.25;1.50;;;17.30;46.40;;;;;;5017218;28;20197;-82
2023/12/10 05:44:54;;;;;;;3.72;1.60;;;17.30;46.40;;;;;;5018101;28;20204;-82
2023/12/10 05:47:21;;;;;;;3.92;1.80;;;17.30;46.40;;;;;;5016133;28;20228;-82
2023/12/10 05:49:48;;;;;;;2.97;1.70;;;17.30;46.20;;;;;;5015953;28;20291;-82
2023/12/10 05:52:16;;;;;;;3.75;1.75;;;17.40;46.30;;;;;;5017023;28;20262;-82
2023/12/10 05:54:44;;;;;;;3.15;1.58;;;17.40;46.30;;;;;;5016203;28;20197;-82
2023/12/10 05:57:11;;;;;;;2.40;1.50;;;17.40;46.20;;;;;;5000838;28;20230;-82
2023/12/10 05:59:38;;;;;;;3.40;1.60;;;17.40;46.30;;;;;;5017643;28;20220;-82
2023/12/10 06:02:05;;;;;;;3.72;1.50;;;17.40;46.30;;;;;;5016847;28;20279;-82
2023/12/10 06:04:32;;;;;;;5.43;1.65;;;17.40;46.30;;;;;;4999822;28;20565;-82
2023/12/10 06:06:59;;;;;;;3.47;1.50;;;17.40;46.20;;;;;;5016386;28;20655;-82
2023/12/10 06:09:28;;;;;;;2.33;1.48;;;17.40;46.20;;;;;;5016021;28;20204;-82
2023/12/10 06:11:55;;;;;;;4.80;1.70;;;17.40;46.10;;;;;;5016402;28;20244;-82
2023/12/10 06:14:22;;;;;;;2.50;1.33;;;17.50;46.00;;;;;;5015461;28;20208;-82
2023/12/10 06:16:49;;;;;;;3.72;1.63;;;17.40;46.10;;;;;;5015690;28;20228;-82
2023/12/10 06:19:17;;;;;;;3.78;1.60;;;17.50;46.00;;;;;;5015372;28;20259;-82
2023/12/10 06:21:44;;;;;;;2.33;1.40;;;17.50;46.00;;;;;;5014996;28;20208;-82
2023/12/10 06:24:11;;;;;;;3.05;1.67;;;17.50;45.90;;;;;;5015688;28;20619;-82
2023/12/10 06:26:40;;;;;;;2.03;1.38;;;17.50;46.00;;;;;;5015322;28;20217;-82
2023/12/10 06:29:07;;;;;;;2.63;1.45;;;17.50;45.80;;;;;;5015742;28;20643;-82
2023/12/10 06:31:34;;;;;;;2.88;1.55;;;17.60;45.60;;;;;;5015959;28;20258;-82
2023/12/10 06:34:01;;;;;;;2.97;1.35;;;17.60;45.50;;;;;;5015157;28;20208;-82
2023/12/10 06:36:28;;;;;;;3.25;1.73;;;17.60;45.60;;;;;;5015426;28;20279;-82
2023/12/10 06:38:55;;;;;;;4.10;1.55;;;17.60;45.60;;;;;;5015204;28;20204;-82
2023/12/10 06:41:22;;;;;;;3.63;1.45;;;17.60;45.60;;;;;;5016487;28;20559;-82
2023/12/10 06:43:51;;;;;;;3.78;1.55;;;17.60;45.40;;;;;;5000497;28;20284;-82
2023/12/10 06:46:18;;;;;;;2.35;1.38;;;17.60;45.30;;;;;;5015563;28;20248;-83
2023/12/10 06:48:45;;;;;;;3.78;1.75;;;17.60;45.50;;;;;;5015083;28;20224;-82
2023/12/10 06:51:12;;;;;;;3.00;1.63;;;17.60;45.40;;;;;;5015093;28;20192;-82
2023/12/10 06:53:39;;;;;;;4.32;1.52;;;17.60;45.30;;;;;;5017863;28;20200;-82
2023/12/10 06:56:08;;;;;;;2.85;1.40;;;17.60;45.30;;;;;;5015435;28;20224;-82
2023/12/10 06:58:35;;;;;;;3.47;1.52;;;17.70;45.40;;;;;;5015856;28;20288;-82
2023/12/10 07:01:04;;;;;;;2.78;1.50;;;17.60;45.30;;;;;;5015013;28;20584;-82
2023/12/10 07:03:33;;;;;;;3.47;1.48;;;17.60;45.40;;;;;;4999405;28;20687;-82
2023/12/10 07:06:03;;;;;;;1.98;1.25;;;17.60;45.30;;;;;;5015354;28;20316;-82
2023/12/10 07:08:30;;;;;;;2.47;1.40;;;17.60;45.30;;;;;;5000493;28;20723;-82
2023/12/10 07:10:57;;;;;;;2.47;1.70;;;17.70;45.40;;;;;;5015372;28;20607;-82
2023/12/10 07:13:25;;;;;;;3.22;1.52;;;17.70;45.40;;;;;;5016212;28;20207;-82
2023/12/10 07:15:52;;;;;;;2.53;1.48;;;17.70;45.40;;;;;;5054754;23;20295;-81
2023/12/10 07:18:20;;;;;;;2.80;1.52;;;17.70;45.30;;;;;;5014575;28;20254;-81
2023/12/10 07:20:48;;;;;;;3.08;1.52;;;17.70;45.50;;;;;;4997765;28;20583;-81
2023/12/10 07:23:15;;;;;;;3.75;1.50;;;17.70;45.40;;;;;;5014101;28;20200;-81
2023/12/10 07:25:42;;;;;;;3.78;1.40;;;17.70;45.40;;;;;;5014180;28;20320;-81
2023/12/10 07:28:09;;;;;;;3.63;1.63;;;17.70;45.50;;;;;;5014629;28;20197;-81
2023/12/10 07:30:36;;;;;;;3.17;1.55;;;17.70;45.40;;;;;;5013811;28;20197;-81
2023/12/10 07:33:03;;;;;;;3.92;1.40;;;17.70;45.50;;;;;;5014118;28;20205;-81
2023/12/10 07:35:32;;;;;;;4.03;1.60;;;17.70;45.60;;;;;;5014003;28;20348;-80
2023/12/10 07:37:59;;;;;;;2.65;1.35;;;17.70;45.60;;;;;;5014902;28;20205;-80
2023/12/10 07:40:26;;;;;;;4.35;1.67;;;17.70;45.60;;;;;;5014612;28;20307;-82
2023/12/10 07:42:53;;;;;;;5.05;1.80;;;17.70;45.60;;;;;;5013808;28;20250;-81
2023/12/10 07:45:20;;;;;;;3.10;1.67;;;17.70;45.50;;;;;;5013831;28;20201;-81
2023/12/10 07:47:47;;;;;;;2.83;1.50;;;17.70;45.50;;;;;;5014301;28;20197;-81
2023/12/10 07:50:15;;;;;;;3.33;1.70;;;17.70;45.60;;;;;;5013606;28;20192;-81
2023/12/10 07:52:43;;;;;;;3.65;1.90;;;17.70;45.60;;;;;;5013622;28;20228;-81
2023/12/10 07:55:10;;;;;;;3.20;1.70;;;17.70;45.60;;;;;;5013472;28;20259;-81
2023/12/10 07:57:37;;;;;;;3.53;1.67;;;17.70;45.60;;;;;;5013726;28;20698;-81
2023/12/10 08:00:05;;;;;;;4.38;1.45;;;17.70;45.60;;;;;;5013380;28;20625;-81
2023/12/10 08:02:39;;;;;;;3.28;1.63;;;17.70;45.60;;;;;;5014568;28;20184;-81
2023/12/10 08:05:06;;;;;;;2.60;1.60;;;17.80;45.70;;;;;;5013627;28;20647;-81
2023/12/10 08:07:33;;;;;;;3.85;1.70;;;17.70;45.60;;;;;;5013205;28;20225;-81
2023/12/10 08:10:02;;;;;;;4.47;1.77;;;17.70;45.70;;;;;;5013190;28;20200;-81
2023/12/10 08:12:29;;;;;;;4.95;1.88;;;17.80;45.80;;;;;;5013345;28;20201;-81
2023/12/10 08:14:56;;;;;;;2.58;1.52;;;17.80;45.70;;;;;;5013388;28;20266;-81
2023/12/10 08:17:23;;;;;;;3.60;1.77;;;17.80;45.70;;;;;;5013469;28;20225;-81
2023/12/10 08:19:50;;;;;;;3.10;1.98;;;17.80;46.30;;;;;;5013225;28;20200;-81
2023/12/10 08:22:18;;;;;;;3.38;1.80;;;17.80;45.80;;;;;;5013331;28;20203;-81
2023/12/10 08:24:45;;;;;;;3.65;1.77;;;17.80;45.80;;;;;;4997157;28;20201;-81
2023/12/10 08:27:13;;;;;;;2.97;1.52;;;17.80;45.80;;;;;;5013795;28;20646;-81
2023/12/10 08:29:40;;;;;;;3.38;1.60;;;17.90;45.80;;;;;;5014065;28;20243;-81
2023/12/10 08:32:07;;;;;;;3.65;1.60;;;17.90;45.90;;;;;;5012986;28;20204;-81
2023/12/10 08:34:34;;;;;;;3.50;1.88;;;17.90;45.80;;;;;;5012786;28;20197;-81
2023/12/10 08:37:03;;;;;;;2.95;1.85;;;17.90;45.80;;;;;;4996269;28;20547;-81
2023/12/10 08:39:30;;;;;;;3.40;1.70;;;17.90;45.70;;;;;;5015231;28;20195;-81
2023/12/10 08:41:57;;;;;;;2.90;1.63;;;17.90;45.70;;;;;;5013628;28;20307;-81
2023/12/10 08:44:26;;;;;;;3.30;1.60;;;17.90;45.80;;;;;;5001468;28;20197;-81
2023/12/10 08:46:54;;;;;;;2.95;1.73;;;17.90;45.80;;;;;;5019765;28;20217;-80
2023/12/10 08:49:21;;;;;;;2.58;1.50;;;17.90;45.80;;;;;;5019838;28;20204;-80
2023/12/10 08:51:48;;;;;;;3.25;1.55;;;17.80;45.80;;;;;;5025756;28;20193;-80
2023/12/10 08:54:16;;;;;;;2.05;1.27;;;17.90;45.90;;;;;;5025702;28;20201;-82
2023/12/10 08:56:43;;;;;;;2.38;1.55;;;17.90;45.80;;;;;;5007173;28;20282;-81
2023/12/10 08:59:10;;;;;;;4.95;1.85;;;18.00;45.70;;;;;;5004698;28;20733;-81
2023/12/10 09:01:38;;;;;;;2.55;1.60;;;18.10;45.60;;;;;;5020401;28;20239;-81
2023/12/10 09:04:05;;;;;;;2.45;1.48;;;18.10;45.90;;;;;;5023302;28;20295;-81
2023/12/10 09:06:33;;;;;;;2.67;1.58;;;18.10;45.50;;;;;;5022170;28;20691;-81
2023/12/10 09:08:59;;;;;;;3.70;1.63;;;18.10;45.40;;;;;;5021852;28;20199;-81
2023/12/10 09:11:26;;;;;;;3.22;1.63;;;18.10;45.30;;;;;;5020105;28;20711;-81
2023/12/10 09:13:54;;;;;;;2.08;1.27;;;18.10;45.20;;;;;;5019829;28;20201;-81
2023/12/10 09:16:21;;;;;;;2.63;1.30;;;18.20;45.30;;;;;;5019597;28;20232;-81
2023/12/10 09:18:50;;;;;;;3.63;1.52;;;18.20;45.10;;;;;;5019980;28;20293;-81
2023/12/10 09:21:17;;;;;;;2.72;1.55;;;18.20;45.00;;;;;;5019592;28;20280;-81
2023/12/10 09:23:44;;;;;;;3.33;1.80;;;18.20;45.00;;;;;;5019482;28;20197;-81
2023/12/10 09:26:11;;;;;;;3.28;1.60;;;18.20;44.90;;;;;;5019497;28;20212;-81
2023/12/10 09:28:39;;;;;;;2.60;1.63;;;18.20;45.00;;;;;;5020428;28;20205;-81
2023/12/10 09:31:06;;;;;;;3.38;2.03;;;18.30;45.00;;;;;;5022065;28;20552;-81
2023/12/10 09:33:33;;;;;;;2.47;1.55;;;18.30;45.00;;;;;;5020929;28;20563;-81
2023/12/10 09:36:01;;;;;;;3.13;1.60;;;18.30;44.90;;;;;;5020874;28;20565;-81
2023/12/10 09:38:28;;;;;;;3.17;1.60;;;18.30;45.40;;;;;;5021729;28;20295;-81
2023/12/10 09:40:56;;;;;;;3.28;1.48;;;18.40;45.00;;;;;;5020502;28;20235;-81
2023/12/10 09:43:23;;;;;;;3.25;1.60;;;18.40;45.30;;;;;;5020230;28;20200;-81
2023/12/10 09:45:51;;;;;;;2.72;1.48;;;18.40;44.70;;;;;;5020319;28;20255;-81
2023/12/10 09:48:18;;;;;;;2.25;1.50;;;18.40;44.80;;;;;;5019356;28;20343;-81
2023/12/10 09:50:45;;;;;;;4.60;1.67;;;18.40;44.50;;;;;;5019261;28;20247;-81
2023/12/10 09:53:14;;;;;;;2.80;1.52;;;18.40;44.60;;;;;;5019476;28;20389;-81
2023/12/10 09:55:41;;;;;;;2.40;1.30;;;18.50;44.70;;;;;;5017331;28;20226;-81
2023/12/10 09:58:08;;;;;;;2.08;1.20;;;18.40;44.60;;;;;;5016413;28;20200;-81
2023/12/10 10:00:35;;;;;;;2.50;1.30;;;18.50;44.60;;;;;;5016674;28;20574;-81
2023/12/10 10:03:02;;;;;;;2.83;1.48;;;18.40;44.50;;;;;;5016124;28;20295;-81
2023/12/10 10:05:29;;;;;;;1.80;1.10;;;18.50;44.70;;;;;;5016745;28;20197;-81
2023/12/10 10:07:57;;;;;;;2.55;1.20;;;18.50;44.70;;;;;;5016804;28;20200;-81
2023/12/10 10:10:26;;;;;;;2.83;1.60;;;18.50;44.70;;;;;;5016153;28;20672;-81
2023/12/10 10:12:55;;;;;;;2.22;1.17;;;18.50;44.60;;;;;;5015944;28;20212;-81
2023/12/10 10:15:27;;;;;;;3.03;1.35;;;18.60;44.70;;;;;;5016044;28;20227;-81
2023/12/10 10:17:55;;;;;;;2.72;1.55;;;18.60;44.60;;;;;;5018172;28;20228;-81
2023/12/10 10:20:23;;;;;;;2.97;1.40;;;18.60;44.60;;;;;;5019098;28;20201;-80
2023/12/10 10:22:50;;;;;;;3.42;1.60;;;18.70;44.70;;;;;;5019573;28;20204;-82
2023/12/10 10:25:17;;;;;;;3.22;1.45;;;18.60;44.60;;;;;;5037295;28;20177;-80
2023/12/10 10:27:46;;;;;;;3.65;1.52;;;18.60;44.70;;;;;;5040291;28;20192;-81
2023/12/10 10:30:13;;;;;;;2.80;1.38;;;18.60;44.60;;;;;;5027222;28;20235;-82
2023/12/10 10:32:41;;;;;;;3.53;1.35;;;18.70;44.70;;;;;;5021646;28;20208;-81
2023/12/10 10:35:11;;;;;;;2.80;1.50;;;18.70;44.40;;;;;;5019952;28;20659;-82
2023/12/10 10:37:38;;;;;;;2.38;1.50;;;18.60;44.60;;;;;;5018606;28;20244;-82
2023/12/10 10:40:07;;;;;;;2.50;1.45;;;18.70;44.70;;;;;;5018355;28;20613;-81
2023/12/10 10:42:34;;;;;;;2.22;1.65;;;18.70;44.40;;;;;;5019567;28;20292;-81
2023/12/10 10:45:02;;;;;;;3.05;1.60;;;18.70;44.60;;;;;;5002688;28;20269;-82
2023/12/10 10:47:30;;;;;;;2.08;1.40;;;18.70;44.40;;;;;;5018090;28;20275;-81
2023/12/10 10:49:58;;;;;;;3.25;1.60;;;18.70;44.50;;;;;;5018796;28;20203;-82
2023/12/10 10:52:27;;;;;;;2.03;1.50;;;18.70;44.40;;;;;;5018291;28;20212;-81
2023/12/10 10:54:54;;;;;;;2.95;1.30;;;18.70;44.50;;;;;;5023789;28;20200;-81
2023/12/10 10:57:29;;;;;;;3.05;1.38;;;18.70;44.50;;;;;;5026126;28;20220;-81
2023/12/10 10:59:56;;;;;;;3.50;1.60;;;18.70;45.00;;;;;;5018956;28;20575;-81
2023/12/10 11:02:25;;;;;;;2.65;1.42;;;18.70;44.20;;;;;;5017654;28;20244;-81
2023/12/10 11:04:52;;;;;;;2.42;1.60;;;18.70;44.10;;;;;;5017696;28;20204;-81
2023/12/10 11:07:20;;;;;;;2.08;1.60;;;18.70;44.20;;;;;;5017285;28;20227;-82
2023/12/10 11:09:58;;;;;;;2.38;1.30;;;18.70;44.10;;;;;;5020348;28;20288;-82
2023/12/10 11:12:45;;;;;;;3.10;1.40;;;18.70;44.10;;;;;;5016351;28;20640;-81
2023/12/10 11:15:23;;;;;;;2.25;1.45;;;18.70;44.20;;;;;;5017177;28;20285;-81
2023/12/10 11:17:52;;;;;;;3.03;1.48;;;18.70;44.10;;;;;;5018147;28;20200;-80
2023/12/10 11:20:35;;;;;;;2.65;1.40;;;18.80;44.20;;;;;;5017930;28;20287;-81
2023/12/10 11:23:03;;;;;;;2.40;1.33;;;18.80;44.50;;;;;;5018338;28;20188;-81
2023/12/10 11:25:31;;;;;;;2.80;1.40;;;18.70;44.20;;;;;;5017305;28;20614;-81
2023/12/10 11:27:58;;;;;;;3.28;1.55;;;18.80;44.40;;;;;;5017051;28;20283;-81
2023/12/10 11:30:27;;;;;;;4.18;1.55;;;18.70;44.40;;;;;;5016083;28;20295;-81
2023/12/10 11:32:56;;;;;;;3.72;1.40;;;18.80;44.40;;;;;;5014491;28;20220;-81
2023/12/10 11:35:24;;;;;;;3.10;1.42;;;18.80;44.20;;;;;;5014641;28;20299;-81
2023/12/10 11:37:51;;;;;;;2.40;1.48;;;18.80;44.30;;;;;;5016237;28;20205;-81
2023/12/10 11:40:18;;;;;;;2.15;1.20;;;18.90;44.30;;;;;;5015751;28;20192;-81
2023/12/10 11:42:46;;;;;;;3.47;1.55;;;18.90;44.30;;;;;;5015712;28;20310;-82
2023/12/10 11:45:14;;;;;;;2.90;1.33;;;18.90;44.30;;;;;;5016475;28;20192;-82
2023/12/10 11:47:43;;;;;;;3.20;1.40;;;18.90;44.20;;;;;;5016421;28;20217;-81
2023/12/10 11:50:14;;;;;;;2.30;1.50;;;18.90;44.20;;;;;;4999175;28;20259;-81
2023/12/10 11:52:42;;;;;;;3.33;1.42;;;18.90;44.20;;;;;;5018562;28;20197;-81
2023/12/10 11:55:09;;;;;;;3.67;1.35;;;18.90;44.20;;;;;;5017667;28;20204;-81
2023/12/10 11:57:42;;;;;;;2.85;1.55;;;18.90;44.30;;;;;;5016900;28;20589;-81
2023/12/10 12:00:11;;;;;;;3.63;1.48;;;18.90;44.20;;;;;;5017662;28;20213;-81
2023/12/10 12:02:43;;;;;;;3.80;1.73;;;19.00;44.40;;;;;;5015990;28;20215;-81
2023/12/10 12:05:12;;;;;;;3.30;1.55;;;18.90;44.40;;;;;;5017091;28;20565;-81
2023/12/10 12:07:39;;;;;;;2.72;1.60;;;19.00;44.40;;;;;;5015382;28;20228;-81
2023/12/10 12:10:07;;;;;;;3.60;1.50;;;19.00;44.40;;;;;;5014036;28;20645;-81
2023/12/10 12:12:38;;;;;;;3.72;1.60;;;19.00;44.20;;;;;;4998303;28;20288;-81
2023/12/10 12:15:05;;;;;;;3.90;1.65;;;19.00;44.20;;;;;;5013839;28;20262;-81
2023/12/10 12:17:33;;;;;;;3.25;1.50;;;19.00;44.30;;;;;;5013157;28;20221;-81
2023/12/10 12:20:14;;;;;;;3.10;1.45;;;19.00;44.10;;;;;;5012463;28;20567;-81
2023/12/10 12:22:41;;;;;;;3.90;1.77;;;19.10;44.10;;;;;;4997064;28;20270;-80
2023/12/10 12:25:09;;;;;;;3.13;1.55;;;19.10;44.10;;;;;;5013316;28;20201;-80
2023/12/10 12:27:36;;;;;;;2.67;1.48;;;19.10;44.20;;;;;;5013212;28;20761;-80
2023/12/10 12:30:04;;;;;;;3.47;1.48;;;19.10;44.10;;;;;;5013096;28;20189;-80
2023/12/10 12:32:31;;;;;;;2.10;1.52;;;19.10;44.20;;;;;;5013043;28;20287;-80
2023/12/10 12:34:58;;;;;;;2.20;1.35;;;19.20;44.20;;;;;;5013191;28;20203;-80
2023/12/10 12:37:27;;;;;;;3.40;1.58;;;19.10;44.00;;;;;;5013007;28;20220;-80
2023/12/10 12:39:55;;;;;;;1.73;1.17;;;19.20;44.00;;;;;;5013124;28;20292;-80
2023/12/10 12:42:22;;;;;;;3.40;1.60;;;19.10;44.00;;;;;;5012853;28;20244;-80
2023/12/10 12:44:49;;;;;;;1.88;1.27;;;19.20;44.60;;;;;;5013203;28;20256;-80
2023/12/10 12:47:16;;;;;;;5.28;1.70;;;19.10;44.00;;;;;;4997516;28;20617;-80
2023/12/10 12:49:43;;;;;;;3.95;1.67;;;19.20;44.20;;;;;;5012905;28;20227;-80